Terminal Aerodrome Forecast
Issued by NWS Chicago, IL

Home | Current Version | Previous Version | Graphics & Text | Print | Product List | Glossary On
Versions: 1 2 3 4 5 6 7 8 9 10 11 12 13 14 15 16 17 18 19 20 21 22 23 24 25 26 27 28 29 30 31
017
FTUS43 KLOT 190532
TAFRFD
TAF
KRFD 190532Z 1906/2006 18005KT 3SM BR FEW008
     FM190900 18005KT 1SM BR SCT006 SCT250
     FM191500 16008KT 6SM BR SCT015 BKN100
     FM192200 10006KT P6SM -SHRA SCT015 OVC035
     FM200100 10005KT 2SM -RA BKN006 OVC015=

USA.gov is the U.S. government's official web portal to all federal, state and local government web resources and services.